sensor_id;sensor_type;location;lat;lon;timestamp;pressure;altitude;pressure_sealevel;temperature;humidity
22649;BME280;11491;41.942;24.220;2023-03-04T00:00:05;89794.16;;;3.10;90.30
22649;BME280;11491;41.942;24.220;2023-03-04T00:02:33;89799.66;;;3.22;90.23
22649;BME280;11491;41.942;24.220;2023-03-04T00:05:00;89785.13;;;3.34;89.01
22649;BME280;11491;41.942;24.220;2023-03-04T00:07:28;89787.13;;;3.28;88.94
22649;BME280;11491;41.942;24.220;2023-03-04T00:09:55;89787.56;;;3.21;89.15
22649;BME280;11491;41.942;24.220;2023-03-04T00:12:21;89791.88;;;3.17;89.38
22649;BME280;11491;41.942;24.220;2023-03-04T00:14:48;89800.28;;;3.19;89.83
22649;BME280;11491;41.942;24.220;2023-03-04T00:17:15;89798.72;;;3.18;89.58
22649;BME280;11491;41.942;24.220;2023-03-04T00:19:43;89792.47;;;3.14;90.18
22649;BME280;11491;41.942;24.220;2023-03-04T00:22:10;89792.63;;;3.18;89.67
22649;BME280;11491;41.942;24.220;2023-03-04T00:24:36;89789.09;;;3.22;89.74
22649;BME280;11491;41.942;24.220;2023-03-04T00:27:03;89791.44;;;3.24;89.26
22649;BME280;11491;41.942;24.220;2023-03-04T00:29:30;89783.81;;;3.22;89.27
22649;BME280;11491;41.942;24.220;2023-03-04T00:31:57;89791.75;;;3.22;89.16
22649;BME280;11491;41.942;24.220;2023-03-04T00:34:23;89790.19;;;3.21;89.01
22649;BME280;11491;41.942;24.220;2023-03-04T00:36:51;89792.19;;;3.16;88.87
22649;BME280;11491;41.942;24.220;2023-03-04T00:39:19;89785.84;;;3.03;89.19
22649;BME280;11491;41.942;24.220;2023-03-04T00:41:45;89785.28;;;3.06;89.15
22649;BME280;11491;41.942;24.220;2023-03-04T00:44:12;89785.28;;;3.06;89.14
22649;BME280;11491;41.942;24.220;2023-03-04T00:46:39;89786.91;;;3.16;88.19
22649;BME280;11491;41.942;24.220;2023-03-04T00:49:06;89777.00;;;2.99;88.10
22649;BME280;11491;41.942;24.220;2023-03-04T00:51:33;89787.03;;;3.11;87.14
22649;BME280;11491;41.942;24.220;2023-03-04T00:54:01;89777.84;;;3.08;86.81
22649;BME280;11491;41.942;24.220;2023-03-04T00:56:28;89765.03;;;3.01;86.83
22649;BME280;11491;41.942;24.220;2023-03-04T00:58:55;89777.47;;;3.01;87.00
22649;BME280;11491;41.942;24.220;2023-03-04T01:01:21;89777.47;;;3.01;86.40
22649;BME280;11491;41.942;24.220;2023-03-04T01:03:48;89776.50;;;2.97;86.39
22649;BME280;11491;41.942;24.220;2023-03-04T01:06:15;89781.06;;;2.83;86.85
22649;BME280;11491;41.942;24.220;2023-03-04T01:08:42;89773.09;;;2.74;86.87
22649;BME280;11491;41.942;24.220;2023-03-04T01:11:10;89770.06;;;2.67;87.90
22649;BME280;11491;41.942;24.220;2023-03-04T01:13:37;89765.78;;;2.71;88.29
22649;BME280;11491;41.942;24.220;2023-03-04T01:16:04;89768.81;;;2.64;88.66
22649;BME280;11491;41.942;24.220;2023-03-04T01:18:31;89769.34;;;2.75;87.92
22649;BME280;11491;41.942;24.220;2023-03-04T01:20:58;89766.09;;;2.78;87.65
22649;BME280;11491;41.942;24.220;2023-03-04T01:23:25;89768.41;;;2.71;87.89
22649;BME280;11491;41.942;24.220;2023-03-04T01:25:52;89763.91;;;2.71;88.45
22649;BME280;11491;41.942;24.220;2023-03-04T01:28:20;89758.31;;;2.73;88.67
22649;BME280;11491;41.942;24.220;2023-03-04T01:30:47;89753.25;;;2.63;88.87
22649;BME280;11491;41.942;24.220;2023-03-04T01:33:14;89767.44;;;2.67;88.76
22649;BME280;11491;41.942;24.220;2023-03-04T01:35:40;89764.84;;;2.75;88.52
22649;BME280;11491;41.942;24.220;2023-03-04T01:38:07;89761.16;;;2.76;88.35
22649;BME280;11491;41.942;24.220;2023-03-04T01:40:34;89761.84;;;2.68;88.38
22649;BME280;11491;41.942;24.220;2023-03-04T01:43:01;89768.22;;;2.67;89.25
22649;BME280;11491;41.942;24.220;2023-03-04T01:45:30;89765.44;;;2.72;89.62
22649;BME280;11491;41.942;24.220;2023-03-04T01:47:58;89765.22;;;2.83;89.02
22649;BME280;11491;41.942;24.220;2023-03-04T01:50:27;89769.31;;;2.89;88.18
22649;BME280;11491;41.942;24.220;2023-03-04T01:52:55;89765.94;;;2.97;87.50
22649;BME280;11491;41.942;24.220;2023-03-04T01:55:22;89764.84;;;2.98;87.21
22649;BME280;11491;41.942;24.220;2023-03-04T01:57:50;89760.66;;;2.97;87.43
22649;BME280;11491;41.942;24.220;2023-03-04T02:00:30;89760.19;;;2.95;87.68
22649;BME280;11491;41.942;24.220;2023-03-04T02:03:00;89745.06;;;2.87;87.04
22649;BME280;11491;41.942;24.220;2023-03-04T02:05:28;89749.81;;;2.76;87.57
22649;BME280;11491;41.942;24.220;2023-03-04T02:07:57;89751.75;;;2.70;88.18
22649;BME280;11491;41.942;24.220;2023-03-04T02:10:26;89756.66;;;2.63;88.34
22649;BME280;11491;41.942;24.220;2023-03-04T02:12:53;89754.53;;;2.65;88.17
22649;BME280;11491;41.942;24.220;2023-03-04T02:15:20;89761.38;;;2.66;88.24
22649;BME280;11491;41.942;24.220;2023-03-04T02:17:49;89752.78;;;2.61;88.83
22649;BME280;11491;41.942;24.220;2023-03-04T02:20:27;89761.63;;;2.56;89.18
22649;BME280;11491;41.942;24.220;2023-03-04T02:23:02;89756.91;;;2.53;89.68
22649;BME280;11491;41.942;24.220;2023-03-04T02:25:38;89754.63;;;2.60;89.76
22649;BME280;11491;41.942;24.220;2023-03-04T02:28:09;89748.06;;;2.71;89.39
22649;BME280;11491;41.942;24.220;2023-03-04T02:30:36;89737.50;;;2.71;89.37
22649;BME280;11491;41.942;24.220;2023-03-04T02:33:03;89739.06;;;2.72;89.34
22649;BME280;11491;41.942;24.220;2023-03-04T02:35:30;89738.06;;;2.68;89.41
22649;BME280;11491;41.942;24.220;2023-03-04T02:37:57;89733.63;;;2.55;89.58
22649;BME280;11491;41.942;24.220;2023-03-04T02:40:28;89736.09;;;2.51;90.48
22649;BME280;11491;41.942;24.220;2023-03-04T02:42:57;89737.94;;;2.51;90.14
22649;BME280;11491;41.942;24.220;2023-03-04T02:45:38;89707.47;;;2.45;90.06
22649;BME280;11491;41.942;24.220;2023-03-04T02:48:05;89744.69;;;2.79;89.14
22649;BME280;11491;41.942;24.220;2023-03-04T02:50:35;89740.38;;;2.84;88.21
22649;BME280;11491;41.942;24.220;2023-03-04T02:53:03;89738.16;;;2.77;88.53
22649;BME280;11491;41.942;24.220;2023-03-04T02:55:30;89745.66;;;2.84;87.52
22649;BME280;11491;41.942;24.220;2023-03-04T02:57:57;89740.13;;;2.71;87.71
22649;BME280;11491;41.942;24.220;2023-03-04T03:00:24;89757.03;;;2.70;88.36
22649;BME280;11491;41.942;24.220;2023-03-04T03:02:53;89752.97;;;2.64;89.38
22649;BME280;11491;41.942;24.220;2023-03-04T03:05:21;89749.34;;;2.60;89.62
22649;BME280;11491;41.942;24.220;2023-03-04T03:07:48;89751.00;;;2.70;89.69
22649;BME280;11491;41.942;24.220;2023-03-04T03:10:15;89746.47;;;2.70;89.89
22649;BME280;11491;41.942;24.220;2023-03-04T03:12:42;89749.00;;;2.75;89.50
22649;BME280;11491;41.942;24.220;2023-03-04T03:15:09;89743.72;;;2.75;89.76
22649;BME280;11491;41.942;24.220;2023-03-04T03:17:36;89745.41;;;2.71;89.82
22649;BME280;11491;41.942;24.220;2023-03-04T03:20:05;89743.31;;;2.82;89.30
22649;BME280;11491;41.942;24.220;2023-03-04T03:22:33;89752.50;;;2.85;88.46
22649;BME280;11491;41.942;24.220;2023-03-04T03:24:59;89740.03;;;2.76;88.04
22649;BME280;11491;41.942;24.220;2023-03-04T03:27:26;89741.94;;;2.85;88.56
22649;BME280;11491;41.942;24.220;2023-03-04T03:29:53;89740.97;;;2.80;88.18
22649;BME280;11491;41.942;24.220;2023-03-04T03:32:20;89740.75;;;2.91;87.55
22649;BME280;11491;41.942;24.220;2023-03-04T03:34:46;89734.09;;;2.93;87.38
22649;BME280;11491;41.942;24.220;2023-03-04T03:37:15;89741.53;;;2.91;87.18
22649;BME280;11491;41.942;24.220;2023-03-04T03:39:41;89739.53;;;2.74;87.67
22649;BME280;11491;41.942;24.220;2023-03-04T03:42:08;89743.47;;;2.63;88.41
22649;BME280;11491;41.942;24.220;2023-03-04T03:44:35;89729.94;;;2.56;88.51
22649;BME280;11491;41.942;24.220;2023-03-04T03:47:02;89736.88;;;2.52;89.37
22649;BME280;11491;41.942;24.220;2023-03-04T03:49:28;89726.94;;;2.49;89.53
22649;BME280;11491;41.942;24.220;2023-03-04T03:51:55;89736.53;;;2.67;88.91
22649;BME280;11491;41.942;24.220;2023-03-04T03:54:23;89747.47;;;2.74;88.68
22649;BME280;11491;41.942;24.220;2023-03-04T03:56:50;89750.50;;;2.68;89.24
22649;BME280;11491;41.942;24.220;2023-03-04T03:59:17;89742.41;;;2.64;89.79
22649;BME280;11491;41.942;24.220;2023-03-04T04:01:44;89742.41;;;2.64;90.04
22649;BME280;11491;41.942;24.220;2023-03-04T04:04:11;89744.16;;;2.69;89.85
22649;BME280;11491;41.942;24.220;2023-03-04T04:06:37;89752.84;;;2.69;90.14
22649;BME280;11491;41.942;24.220;2023-03-04T04:09:04;89747.81;;;2.82;90.24
22649;BME280;11491;41.942;24.220;2023-03-04T04:11:32;89745.84;;;2.87;89.53
22649;BME280;11491;41.942;24.220;2023-03-04T04:13:59;89742.53;;;2.82;89.43
22649;BME280;11491;41.942;24.220;2023-03-04T04:16:26;89747.09;;;2.90;89.39
22649;BME280;11491;41.942;24.220;2023-03-04T04:18:52;89747.94;;;2.99;88.59
22649;BME280;11491;41.942;24.220;2023-03-04T04:21:19;89751.31;;;2.91;88.31
22649;BME280;11491;41.942;24.220;2023-03-04T04:23:46;89744.94;;;2.92;88.66
22649;BME280;11491;41.942;24.220;2023-03-04T04:26:13;89749.13;;;2.93;88.41
22649;BME280;11491;41.942;24.220;2023-03-04T04:28:41;89756.00;;;2.94;88.27
22649;BME280;11491;41.942;24.220;2023-03-04T04:31:08;89745.22;;;2.90;88.41
22649;BME280;11491;41.942;24.220;2023-03-04T04:33:35;89745.84;;;2.87;88.69
22649;BME280;11491;41.942;24.220;2023-03-04T04:36:02;89748.75;;;2.86;88.96
22649;BME280;11491;41.942;24.220;2023-03-04T04:38:29;89743.47;;;2.86;89.18
22649;BME280;11491;41.942;24.220;2023-03-04T04:40:56;89747.50;;;2.83;89.04
22649;BME280;11491;41.942;24.220;2023-03-04T04:43:24;89749.97;;;2.79;88.76
22649;BME280;11491;41.942;24.220;2023-03-04T04:45:52;89744.44;;;2.90;88.07
22649;BME280;11491;41.942;24.220;2023-03-04T04:48:19;89743.16;;;2.78;88.21
22649;BME280;11491;41.942;24.220;2023-03-04T04:50:45;89739.59;;;2.83;88.64
22649;BME280;11491;41.942;24.220;2023-03-04T04:53:12;89751.19;;;2.73;89.00
22649;BME280;11491;41.942;24.220;2023-03-04T04:55:39;89744.94;;;2.69;89.24
22649;BME280;11491;41.942;24.220;2023-03-04T04:58:06;89737.50;;;2.71;89.06
22649;BME280;11491;41.942;24.220;2023-03-04T05:00:33;89743.06;;;2.70;88.98
22649;BME280;11491;41.942;24.220;2023-03-04T05:03:01;89736.94;;;2.61;88.79
22649;BME280;11491;41.942;24.220;2023-03-04T05:05:28;89737.91;;;2.65;89.18
22649;BME280;11491;41.942;24.220;2023-03-04T05:07:54;89746.72;;;2.60;88.97
22649;BME280;11491;41.942;24.220;2023-03-04T05:10:21;89750.22;;;2.69;88.85
22649;BME280;11491;41.942;24.220;2023-03-04T05:12:48;89746.31;;;2.67;88.82
22649;BME280;11491;41.942;24.220;2023-03-04T05:15:15;89736.28;;;2.77;88.00
22649;BME280;11491;41.942;24.220;2023-03-04T05:17:42;89733.03;;;2.80;87.62
22649;BME280;11491;41.942;24.220;2023-03-04T05:20:11;89737.50;;;2.71;87.41
22649;BME280;11491;41.942;24.220;2023-03-04T05:22:38;89737.91;;;2.65;88.00
22649;BME280;11491;41.942;24.220;2023-03-04T05:25:05;89741.81;;;2.67;88.79
22649;BME280;11491;41.942;24.220;2023-03-04T05:27:32;89744.94;;;2.69;88.49
22649;BME280;11491;41.942;24.220;2023-03-04T05:29:59;89745.91;;;2.73;88.41
22649;BME280;11491;41.942;24.220;2023-03-04T05:32:26;89737.31;;;2.68;88.48
22649;BME280;11491;41.942;24.220;2023-03-04T05:34:52;89737.13;;;2.64;88.82
22649;BME280;11491;41.942;24.220;2023-03-04T05:37:21;89734.38;;;2.69;88.94
22649;BME280;11491;41.942;24.220;2023-03-04T05:39:47;89740.97;;;2.80;88.35
22649;BME280;11491;41.942;24.220;2023-03-04T05:42:14;89735.69;;;2.80;88.16
22649;BME280;11491;41.942;24.220;2023-03-04T05:44:41;89744.69;;;2.79;88.44
22649;BME280;11491;41.942;24.220;2023-03-04T05:47:07;89747.22;;;2.85;88.61
22649;BME280;11491;41.942;24.220;2023-03-04T05:49:34;89749.72;;;2.90;88.46
22649;BME280;11491;41.942;24.220;2023-03-04T05:52:01;89754.53;;;2.88;88.24
22649;BME280;11491;41.942;24.220;2023-03-04T05:54:29;89755.50;;;2.92;88.45
22649;BME280;11491;41.942;24.220;2023-03-04T05:56:56;89754.41;;;2.93;88.51
22649;BME280;11491;41.942;24.220;2023-03-04T05:59:22;89761.28;;;2.94;89.01
22649;BME280;11491;41.942;24.220;2023-03-04T06:01:49;89756.00;;;2.94;89.22
22649;BME280;11491;41.942;24.220;2023-03-04T06:04:16;89762.03;;;2.94;88.91
22649;BME280;11491;41.942;24.220;2023-03-04T06:06:43;89768.59;;;2.97;89.04
22649;BME280;11491;41.942;24.220;2023-03-04T06:09:11;89765.94;;;2.97;88.95
22649;BME280;11491;41.942;24.220;2023-03-04T06:11:39;89773.75;;;3.02;89.58
22649;BME280;11491;41.942;24.220;2023-03-04T06:14:06;89770.00;;;3.03;89.67
22649;BME280;11491;41.942;24.220;2023-03-04T06:16:32;89768.06;;;3.09;89.48
22649;BME280;11491;41.942;24.220;2023-03-04T06:18:59;89769.78;;;3.13;89.84
22649;BME280;11491;41.942;24.220;2023-03-04T06:21:26;89772.31;;;3.18;89.67
22649;BME280;11491;41.942;24.220;2023-03-04T06:23:53;89779.75;;;3.16;89.70
22649;BME280;11491;41.942;24.220;2023-03-04T06:26:19;89785.03;;;3.16;89.39
22649;BME280;11491;41.942;24.220;2023-03-04T06:28:48;89781.19;;;3.22;89.59
22649;BME280;11491;41.942;24.220;2023-03-04T06:31:14;89778.88;;;3.30;88.60
22649;BME280;11491;41.942;24.220;2023-03-04T06:33:41;89779.50;;;3.27;88.13
22649;BME280;11491;41.942;24.220;2023-03-04T06:36:08;89788.69;;;3.29;88.08
22649;BME280;11491;41.942;24.220;2023-03-04T06:38:35;89777.81;;;3.31;88.85
22649;BME280;11491;41.942;24.220;2023-03-04T06:41:05;89784.53;;;3.37;89.04
22649;BME280;11491;41.942;24.220;2023-03-04T06:43:33;89780.34;;;3.36;89.41
22649;BME280;11491;41.942;24.220;2023-03-04T06:46:01;89771.31;;;3.37;89.50
22649;BME280;11491;41.942;24.220;2023-03-04T06:48:28;89777.09;;;3.39;89.28
22649;BME280;11491;41.942;24.220;2023-03-04T06:50:55;89769.63;;;3.41;89.96
22649;BME280;11491;41.942;24.220;2023-03-04T06:53:21;89776.56;;;3.59;89.05
22649;BME280;11491;41.942;24.220;2023-03-04T06:55:48;89778.66;;;3.71;88.49
22649;BME280;11491;41.942;24.220;2023-03-04T06:58:15;89779.75;;;3.79;87.68
22649;BME280;11491;41.942;24.220;2023-03-04T07:00:42;89776.56;;;3.91;87.13
22649;BME280;11491;41.942;24.220;2023-03-04T07:03:11;89779.22;;;3.99;86.38
22649;BME280;11491;41.942;24.220;2023-03-04T07:05:38;89767.09;;;3.98;86.23
22649;BME280;11491;41.942;24.220;2023-03-04T07:08:05;89760.69;;;3.99;86.23
22649;BME280;11491;41.942;24.220;2023-03-04T07:10:32;89771.06;;;3.87;86.14
22649;BME280;11491;41.942;24.220;2023-03-04T07:12:59;89774.59;;;3.74;87.20
22649;BME280;11491;41.942;24.220;2023-03-04T07:15:26;89773.88;;;3.51;88.20
22649;BME280;11491;41.942;24.220;2023-03-04T07:17:53;89767.81;;;3.50;88.69
22649;BME280;11491;41.942;24.220;2023-03-04T07:20:21;89773.41;;;3.49;89.80
22649;BME280;11491;41.942;24.220;2023-03-04T07:22:48;89764.63;;;3.31;90.14
22649;BME280;11491;41.942;24.220;2023-03-04T07:25:15;89771.22;;;3.19;92.23
22649;BME280;11491;41.942;24.220;2023-03-04T07:27:42;89766.91;;;3.01;92.78
22649;BME280;11491;41.942;24.220;2023-03-04T07:30:10;89773.50;;;3.12;93.50
22649;BME280;11491;41.942;24.220;2023-03-04T07:32:37;89763.66;;;3.27;93.70
22649;BME280;11491;41.942;24.220;2023-03-04T07:35:04;89768.13;;;3.49;92.79
22649;BME280;11491;41.942;24.220;2023-03-04T07:37:33;89765.13;;;3.73;92.66
22649;BME280;11491;41.942;24.220;2023-03-04T07:39:59;89767.84;;;3.99;90.84
22649;BME280;11491;41.942;24.220;2023-03-04T07:42:30;89763.38;;;4.17;90.04
22649;BME280;11491;41.942;24.220;2023-03-04T07:44:56;89764.38;;;4.38;89.77
22649;BME280;11491;41.942;24.220;2023-03-04T07:47:24;89759.44;;;4.63;87.36
22649;BME280;11491;41.942;24.220;2023-03-04T07:49:51;89760.06;;;4.77;86.72
22649;BME280;11491;41.942;24.220;2023-03-04T07:52:18;89751.19;;;4.90;85.56
22649;BME280;11491;41.942;24.220;2023-03-04T07:54:46;89752.25;;;5.07;85.54
22649;BME280;11491;41.942;24.220;2023-03-04T07:57:12;89760.19;;;5.24;85.45
22649;BME280;11491;41.942;24.220;2023-03-04T07:59:39;89756.13;;;5.44;85.18
22649;BME280;11491;41.942;24.220;2023-03-04T08:02:06;89756.38;;;5.60;84.02
22649;BME280;11491;41.942;24.220;2023-03-04T08:04:34;89761.16;;;5.75;80.56
22649;BME280;11491;41.942;24.220;2023-03-04T08:07:01;89754.59;;;5.81;79.59
22649;BME280;11491;41.942;24.220;2023-03-04T08:09:27;89758.94;;;5.95;80.17
22649;BME280;11491;41.942;24.220;2023-03-04T08:11:57;89753.28;;;6.05;80.09
22649;BME280;11491;41.942;24.220;2023-03-04T08:14:23;89758.97;;;6.24;78.82
22649;BME280;11491;41.942;24.220;2023-03-04T08:16:50;89763.44;;;6.33;78.53
22649;BME280;11491;41.942;24.220;2023-03-04T08:19:17;89760.88;;;6.45;77.77
22649;BME280;11491;41.942;24.220;2023-03-04T08:21:44;89754.53;;;6.58;76.56
22649;BME280;11491;41.942;24.220;2023-03-04T08:24:11;89752.13;;;6.74;75.90
22649;BME280;11491;41.942;24.220;2023-03-04T08:26:39;89745.63;;;6.84;75.37
22649;BME280;11491;41.942;24.220;2023-03-04T08:29:10;89739.94;;;6.94;74.61
22649;BME280;11491;41.942;24.220;2023-03-04T08:31:37;89738.25;;;7.10;74.42
22649;BME280;11491;41.942;24.220;2023-03-04T08:34:05;89745.63;;;7.26;74.13
22649;BME280;11491;41.942;24.220;2023-03-04T08:36:32;89740.41;;;7.29;71.75
22649;BME280;11491;41.942;24.220;2023-03-04T08:38:59;89741.84;;;7.27;70.72
22649;BME280;11491;41.942;24.220;2023-03-04T08:41:25;89742.75;;;7.31;71.71
22649;BME280;11491;41.942;24.220;2023-03-04T08:43:52;89742.69;;;7.52;70.82
22649;BME280;11491;41.942;24.220;2023-03-04T08:46:20;89739.16;;;7.60;69.26
22649;BME280;11491;41.942;24.220;2023-03-04T08:48:47;89736.44;;;7.69;67.77
22649;BME280;11491;41.942;24.220;2023-03-04T08:51:14;89734.69;;;7.85;70.17
22649;BME280;11491;41.942;24.220;2023-03-04T08:53:42;89739.28;;;8.22;68.44
22649;BME280;11491;41.942;24.220;2023-03-04T08:56:09;89735.50;;;8.59;65.74
22649;BME280;11491;41.942;24.220;2023-03-04T08:58:37;89732.72;;;8.80;63.31
22649;BME280;11491;41.942;24.220;2023-03-04T09:01:06;89721.38;;;8.83;60.04
22649;BME280;11491;41.942;24.220;2023-03-04T09:03:34;89729.13;;;9.01;62.40
22649;BME280;11491;41.942;24.220;2023-03-04T09:06:02;89726.47;;;8.89;58.58
22649;BME280;11491;41.942;24.220;2023-03-04T09:08:30;89735.38;;;8.80;60.58
22649;BME280;11491;41.942;24.220;2023-03-04T09:10:57;89732.06;;;8.71;62.39
22649;BME280;11491;41.942;24.220;2023-03-04T09:13:24;89725.28;;;8.74;65.04
22649;BME280;11491;41.942;24.220;2023-03-04T09:15:51;89720.94;;;8.81;63.25
22649;BME280;11491;41.942;24.220;2023-03-04T09:18:19;89718.13;;;9.02;64.35
22649;BME280;11491;41.942;24.220;2023-03-04T09:20:47;89716.63;;;9.17;63.27
22649;BME280;11491;41.942;24.220;2023-03-04T09:23:15;89721.47;;;9.27;62.04
22649;BME280;11491;41.942;24.220;2023-03-04T09:25:43;89714.38;;;9.32;60.99
22649;BME280;11491;41.942;24.220;2023-03-04T09:28:11;89717.88;;;9.36;61.41
22649;BME280;11491;41.942;24.220;2023-03-04T09:30:38;89718.09;;;9.43;62.18
22649;BME280;11491;41.942;24.220;2023-03-04T09:33:05;89715.66;;;9.38;62.85
22649;BME280;11491;41.942;24.220;2023-03-04T09:35:32;89713.00;;;9.38;63.07
22649;BME280;11491;41.942;24.220;2023-03-04T09:38:00;89714.22;;;9.12;62.22
22649;BME280;11491;41.942;24.220;2023-03-04T09:40:28;89716.28;;;8.78;64.55
22649;BME280;11491;41.942;24.220;2023-03-04T09:42:59;89713.53;;;8.62;64.11
22649;BME280;11491;41.942;24.220;2023-03-04T09:45:33;89709.22;;;8.58;64.93
22649;BME280;11491;41.942;24.220;2023-03-04T09:48:01;89712.56;;;8.43;63.50
22649;BME280;11491;41.942;24.220;2023-03-04T09:50:32;89719.22;;;8.49;67.18
22649;BME280;11491;41.942;24.220;2023-03-04T09:53:18;89712.66;;;8.58;70.43
22649;BME280;11491;41.942;24.220;2023-03-04T09:55:50;89709.19;;;7.96;71.83
22649;BME280;11491;41.942;24.220;2023-03-04T09:58:26;89710.59;;;7.69;68.67
22649;BME280;11491;41.942;24.220;2023-03-04T10:01:02;89702.44;;;7.41;68.72
22649;BME280;11491;41.942;24.220;2023-03-04T10:03:39;89687.56;;;7.40;71.26
22649;BME280;11491;41.942;24.220;2023-03-04T10:06:10;89705.84;;;7.63;70.41
22649;BME280;11491;41.942;24.220;2023-03-04T10:08:45;89698.84;;;7.58;70.97
22649;BME280;11491;41.942;24.220;2023-03-04T10:11:16;89698.69;;;7.54;70.88
22649;BME280;11491;41.942;24.220;2023-03-04T10:13:52;89695.16;;;7.50;71.91
22649;BME280;11491;41.942;24.220;2023-03-04T10:16:23;89701.56;;;7.49;72.30
22649;BME280;11491;41.942;24.220;2023-03-04T10:18:54;89702.44;;;7.41;78.49
22649;BME280;11491;41.942;24.220;2023-03-04T10:21:25;89694.22;;;7.34;80.45
22649;BME280;11491;41.942;24.220;2023-03-04T10:23:56;89690.88;;;7.25;81.82
22649;BME280;11491;41.942;24.220;2023-03-04T10:26:28;89692.91;;;7.28;82.19
22649;BME280;11491;41.942;24.220;2023-03-04T10:28:55;89687.13;;;7.26;83.14
22649;BME280;11491;41.942;24.220;2023-03-04T10:31:30;89691.88;;;7.32;83.20
22649;BME280;11491;41.942;24.220;2023-03-04T10:33:57;89684.50;;;7.38;83.08
22649;BME280;11491;41.942;24.220;2023-03-04T10:36:39;89677.84;;;7.44;82.87
22649;BME280;11491;41.942;24.220;2023-03-04T10:39:11;89680.75;;;7.51;81.99
22649;BME280;11491;41.942;24.220;2023-03-04T10:41:42;89668.88;;;7.49;81.44
22649;BME280;11491;41.942;24.220;2023-03-04T10:44:15;89677.22;;;7.60;81.62
22649;BME280;11491;41.942;24.220;2023-03-04T10:46:43;89673.66;;;7.55;81.57
22649;BME280;11491;41.942;24.220;2023-03-04T10:49:12;89671.84;;;7.47;82.36
22649;BME280;11491;41.942;24.220;2023-03-04T10:51:44;89668.13;;;7.48;83.20
22649;BME280;11491;41.942;24.220;2023-03-04T10:54:22;89662.13;;;7.51;82.99
22649;BME280;11491;41.942;24.220;2023-03-04T10:56:56;89659.69;;;7.59;83.57
22649;BME280;11491;41.942;24.220;2023-03-04T10:59:39;89657.06;;;7.71;83.17
22649;BME280;11491;41.942;24.220;2023-03-04T11:02:20;89647.19;;;7.84;82.98
22649;BME280;11491;41.942;24.220;2023-03-04T11:04:52;89646.06;;;7.97;82.66
22649;BME280;11491;41.942;24.220;2023-03-04T11:07:21;89638.66;;;8.03;81.17
22649;BME280;11491;41.942;24.220;2023-03-04T11:09:50;89632.44;;;7.98;81.90
22649;BME280;11491;41.942;24.220;2023-03-04T11:12:19;89631.31;;;8.12;80.48
22649;BME280;11491;41.942;24.220;2023-03-04T11:14:47;89612.22;;;8.10;80.52
22649;BME280;11491;41.942;24.220;2023-03-04T11:17:18;89624.66;;;8.30;79.61
22649;BME280;11491;41.942;24.220;2023-03-04T11:19:48;89622.41;;;8.45;79.34
22649;BME280;11491;41.942;24.220;2023-03-04T11:22:19;89621.06;;;8.51;78.63
22649;BME280;11491;41.942;24.220;2023-03-04T11:24:56;89613.72;;;8.60;78.75
22649;BME280;11491;41.942;24.220;2023-03-04T11:27:30;89611.03;;;8.72;78.11
22649;BME280;11491;41.942;24.220;2023-03-04T11:30:07;89602.78;;;8.77;78.07
22649;BME280;11491;41.942;24.220;2023-03-04T11:32:39;89605.41;;;8.90;78.11
22649;BME280;11491;41.942;24.220;2023-03-04T11:35:17;89595.09;;;9.04;77.20
22649;BME280;11491;41.942;24.220;2023-03-04T11:37:53;89597.63;;;9.13;76.22
22649;BME280;11491;41.942;24.220;2023-03-04T11:40:28;89596.59;;;9.17;76.11
22649;BME280;11491;41.942;24.220;2023-03-04T11:43:02;89597.31;;;9.30;75.03
22649;BME280;11491;41.942;24.220;2023-03-04T11:45:46;89589.56;;;9.41;74.26
22649;BME280;11491;41.942;24.220;2023-03-04T11:48:31;89592.16;;;9.53;73.98
22649;BME280;11491;41.942;24.220;2023-03-04T11:51:05;89588.72;;;9.53;73.79
22649;BME280;11491;41.942;24.220;2023-03-04T11:53:39;89585.78;;;9.58;73.94
22649;BME280;11491;41.942;24.220;2023-03-04T11:56:29;89577.44;;;9.43;73.74
22649;BME280;11491;41.942;24.220;2023-03-04T11:59:21;89574.00;;;9.27;73.98
22649;BME280;11491;41.942;24.220;2023-03-04T12:02:01;89573.44;;;9.21;73.77
22649;BME280;11491;41.942;24.220;2023-03-04T12:04:53;89580.66;;;9.05;73.29
22649;BME280;11491;41.942;24.220;2023-03-04T12:07:42;89554.81;;;8.77;73.90
22649;BME280;11491;41.942;24.220;2023-03-04T12:10:21;89573.47;;;8.77;75.10
22649;BME280;11491;41.942;24.220;2023-03-04T12:13:32;89576.13;;;8.77;77.40
22649;BME280;11491;41.942;24.220;2023-03-04T12:16:14;89568.19;;;8.65;77.87
22649;BME280;11491;41.942;24.220;2023-03-04T12:18:57;89569.72;;;8.66;77.94
22649;BME280;11491;41.942;24.220;2023-03-04T12:27:27;89562.09;;;8.65;79.00
22649;BME280;11491;41.942;24.220;2023-03-04T12:30:02;89554.94;;;8.69;78.80
22649;BME280;11491;41.942;24.220;2023-03-04T12:32:39;89556.66;;;8.61;77.24
22649;BME280;11491;41.942;24.220;2023-03-04T12:35:26;89567.06;;;8.66;78.12
22649;BME280;11491;41.942;24.220;2023-03-04T12:40:54;89570.91;;;8.53;78.22
22649;BME280;11491;41.942;24.220;2023-03-04T12:43:40;89556.69;;;8.36;78.49
22649;BME280;11491;41.942;24.220;2023-03-04T12:46:26;89563.94;;;8.24;79.05
22649;BME280;11491;41.942;24.220;2023-03-04T12:49:13;89564.03;;;8.27;79.06
22649;BME280;11491;41.942;24.220;2023-03-04T12:51:49;89572.09;;;8.15;79.92
22649;BME280;11491;41.942;24.220;2023-03-04T12:54:26;89558.31;;;8.13;80.36
22649;BME280;11491;41.942;24.220;2023-03-04T12:56:57;89564.97;;;8.07;80.03
22649;BME280;11491;41.942;24.220;2023-03-04T12:59:28;89565.09;;;8.10;81.08
22649;BME280;11491;41.942;24.220;2023-03-04T13:02:25;89555.69;;;8.01;81.00
22649;BME280;11491;41.942;24.220;2023-03-04T13:04:59;89561.53;;;8.06;81.03
22649;BME280;11491;41.942;24.220;2023-03-04T13:07:37;89554.91;;;8.00;81.81
22649;BME280;11491;41.942;24.220;2023-03-04T13:10:10;89558.56;;;7.95;81.56
22649;BME280;11491;41.942;24.220;2023-03-04T13:12:49;89545.91;;;7.92;81.35
22649;BME280;11491;41.942;24.220;2023-03-04T13:15:30;89546.34;;;7.94;81.90
22649;BME280;11491;41.942;24.220;2023-03-04T13:18:01;89536.59;;;7.98;82.76
22649;BME280;11491;41.942;24.220;2023-03-04T13:20:35;89532.97;;;8.31;81.92